Time;durP1;ratioP1;P1;durP2;ratioP2;P2;SDS_P1;SDS_P2;PMS_P1;PMS_P2;Temp;Humidity;BMP_temperature;BMP_pressure;BME280_temperature;BME280_humidity;BME280_pressure;Samples;Min_cycle;Max_cycle;Signal;HPM_P1;HPM_P2
2024/02/21 00:01:17;;;;;;;30.20;8.70;;;;;;;6.61;80.53;101515.66;104847;1262;74901;-61
2024/02/21 00:03:44;;;;;;;32.60;13.10;;;;;;;6.58;80.53;101518.96;104671;1261;65596;-61
2024/02/21 00:06:11;;;;;;;28.90;14.10;;;;;;;6.55;80.52;101516.70;104649;1260;138700;-61
2024/02/21 00:08:37;;;;;;;30.90;14.80;;;;;;;6.55;80.63;101512.54;104811;1257;61187;-62
2024/02/21 00:11:04;;;;;;;32.70;11.00;;;;;;;6.54;80.58;101506.39;104765;1260;139317;-60
2024/02/21 00:13:31;;;;;;;27.20;10.30;;;;;;;6.54;80.67;101505.16;104736;1259;75266;-61
2024/02/21 00:15:57;;;;;;;39.20;14.20;;;;;;;6.55;80.64;101505.73;105015;1260;65596;-60
2024/02/21 00:18:24;;;;;;;39.00;16.00;;;;;;;6.53;80.68;101499.88;104821;1260;138127;-59
2024/02/21 00:20:51;;;;;;;42.60;16.90;;;;;;;6.51;80.69;101499.23;104896;1260;61576;-62
2024/02/21 00:23:17;;;;;;;31.40;13.30;;;;;;;6.48;80.63;101498.39;104863;1259;137994;-61
2024/02/21 00:25:45;;;;;;;37.80;14.80;;;;;;;6.43;80.59;101500.89;104988;1257;75336;-60
2024/02/21 00:28:12;;;;;;;49.00;20.90;;;;;;;6.36;80.52;101502.61;108945;1256;67554;-61
2024/02/21 00:30:38;;;;;;;49.00;17.60;;;;;;;6.31;80.59;101497.13;108184;1257;139340;-61
2024/02/21 00:33:05;;;;;;;39.40;13.80;;;;;;;6.29;80.70;101501.02;104981;1257;61196;-60
2024/02/21 00:35:31;;;;;;;34.10;12.70;;;;;;;6.28;80.65;101497.66;104709;1260;139556;-61
2024/02/21 00:37:59;;;;;;;25.30;10.20;;;;;;;6.25;80.74;101495.06;104928;1260;75779;-60
2024/02/21 00:40:26;;;;;;;20.70;7.00;;;;;;;6.26;80.86;101493.02;104964;1257;66734;-61
2024/02/21 00:42:52;;;;;;;20.90;6.90;;;;;;;6.28;80.85;101488.23;104796;1257;138348;-61
2024/02/21 00:45:19;;;;;;;25.40;6.80;;;;;;;6.29;80.82;101481.89;104882;1261;61345;-61
2024/02/21 00:47:46;;;;;;;23.60;6.90;;;;;;;6.33;81.02;101477.88;104738;1260;138360;-60
2024/02/21 00:50:13;;;;;;;17.10;5.00;;;;;;;6.35;81.05;101477.31;104881;1258;74098;-61
2024/02/21 00:52:40;;;;;;;16.30;4.60;;;;;;;6.37;81.03;101473.95;104860;1261;66041;-60
2024/02/21 00:55:07;;;;;;;16.30;5.50;;;;;;;6.41;81.08;101472.58;104862;1258;74337;-61
2024/02/21 00:57:34;;;;;;;21.90;5.30;;;;;;;6.42;81.06;101468.64;108915;1257;58968;-60
2024/02/21 01:00:03;;;;;;;22.10;5.00;;;;;;;6.44;81.04;101467.30;108831;1257;138217;-61
2024/02/21 01:02:32;;;;;;;19.20;5.10;;;;;;;6.44;81.04;101463.33;108853;1257;75819;-61
2024/02/21 01:04:59;;;;;;;32.10;11.10;;;;;;;6.43;80.96;101460.48;108851;1255;138149;-60
2024/02/21 01:07:25;;;;;;;25.10;9.30;;;;;;;6.41;80.88;101457.23;108952;1256;71808;-61
2024/02/21 01:09:52;;;;;;;24.80;7.60;;;;;;;6.41;80.92;101453.77;108954;1257;59317;-61
2024/02/21 01:12:19;;;;;;;18.20;4.80;;;;;;;6.41;80.90;101455.33;108692;1257;139045;-61
2024/02/21 01:14:46;;;;;;;15.00;4.30;;;;;;;6.42;81.02;101451.69;108927;1257;74493;-62
2024/02/21 01:17:13;;;;;;;19.90;5.80;;;;;;;6.46;81.09;101450.15;108867;1257;140064;-60
2024/02/21 01:19:39;;;;;;;24.70;6.50;;;;;;;6.48;81.03;101452.15;108927;1257;75658;-61
2024/02/21 01:22:06;;;;;;;30.90;8.90;;;;;;;6.49;80.98;101450.65;105628;1257;61360;-61
2024/02/21 01:24:33;;;;;;;37.70;11.70;;;;;;;6.47;80.89;101451.23;104780;1257;138943;-60
2024/02/21 01:26:59;;;;;;;35.40;10.50;;;;;;;6.47;81.07;101447.04;104788;1260;74314;-60
2024/02/21 01:29:26;;;;;;;35.00;10.10;;;;;;;6.47;81.13;101449.15;104721;1257;139043;-59
2024/02/21 01:31:53;;;;;;;28.10;7.90;;;;;;;6.48;81.11;101446.06;104928;1264;72997;-60
2024/02/21 01:34:20;;;;;;;32.90;8.30;;;;;;;6.46;81.16;101442.64;104906;1257;61331;-60
2024/02/21 01:36:46;;;;;;;35.70;8.70;;;;;;;6.45;81.19;101439.98;104749;1257;138343;-60
2024/02/21 01:39:13;;;;;;;33.40;9.00;;;;;;;6.44;81.27;101436.12;105008;1260;73769;-60
2024/02/21 01:41:40;;;;;;;32.00;7.60;;;;;;;6.44;81.33;101433.88;104795;1260;138924;-59
2024/02/21 01:44:06;;;;;;;35.10;8.60;;;;;;;6.45;81.36;101429.88;104858;1257;71684;-59
2024/02/21 01:46:33;;;;;;;37.90;10.90;;;;;;;6.43;81.36;101430.47;104754;1258;59827;-60
2024/02/21 01:49:00;;;;;;;26.90;8.90;;;;;;;6.41;81.44;101431.09;104604;1257;138023;-61
2024/02/21 01:51:27;;;;;;;37.70;11.80;;;;;;;6.41;81.49;101429.67;104847;1260;75898;-60
2024/02/21 01:53:55;;;;;;;29.00;8.40;;;;;;;6.39;81.49;101424.38;104810;1264;138081;-59
2024/02/21 01:56:22;;;;;;;26.50;8.20;;;;;;;6.38;81.62;101423.25;108924;1257;73702;-60
2024/02/21 01:58:48;;;;;;;32.10;10.10;;;;;;;6.40;81.84;101422.61;106590;1257;138829;-59
2024/02/21 02:01:15;;;;;;;35.20;8.80;;;;;;;6.41;81.76;101423.03;104742;1260;61417;-61
2024/02/21 02:03:42;;;;;;;16.60;6.20;;;;;;;6.41;81.79;101421.31;104679;1257;75195;-61
2024/02/21 02:06:09;;;;;;;27.60;7.80;;;;;;;6.42;81.78;101419.10;104683;1258;138469;-60
2024/02/21 02:08:36;;;;;;;28.40;7.30;;;;;;;6.40;81.85;101410.84;105021;1260;73271;-60
2024/02/21 02:11:03;;;;;;;23.80;5.60;;;;;;;6.41;81.92;101409.14;104843;1258;138736;-61
2024/02/21 02:13:30;;;;;;;26.40;6.40;;;;;;;6.42;81.97;101405.35;104955;1257;61183;-60
2024/02/21 02:15:56;;;;;;;32.30;5.90;;;;;;;6.43;82.00;101400.16;104818;1257;75651;-61
2024/02/21 02:18:23;;;;;;;26.60;6.50;;;;;;;6.44;82.02;101398.79;104597;1260;138517;-60
2024/02/21 02:20:50;;;;;;;29.10;7.60;;;;;;;6.43;82.05;101399.98;104680;1257;73212;-60
2024/02/21 02:23:31;;;;;;;23.90;7.30;;;;;;;6.43;82.15;101394.73;108239;1258;139178;-61
2024/02/21 02:25:58;;;;;;;23.40;7.40;;;;;;;6.43;82.29;101389.67;108984;1256;59210;-60
2024/02/21 02:28:24;;;;;;;28.30;6.50;;;;;;;6.44;82.28;101387.81;105406;1256;73491;-60
2024/02/21 02:30:51;;;;;;;23.90;5.70;;;;;;;6.47;82.34;101374.05;104814;1260;139060;-62
2024/02/21 02:33:18;;;;;;;23.40;6.10;;;;;;;6.47;82.31;101372.23;104919;1257;73372;-61
2024/02/21 02:35:45;;;;;;;27.50;7.70;;;;;;;6.46;82.35;101370.48;104622;1260;138405;-61
2024/02/21 02:38:13;;;;;;;19.20;6.30;;;;;;;6.46;82.49;101368.56;104724;1261;61332;-61
2024/02/21 02:40:42;;;;;;;26.50;7.50;;;;;;;6.48;82.61;101361.18;104776;1260;75610;-61
2024/02/21 02:43:09;;;;;;;35.90;9.20;;;;;;;6.49;82.51;101359.66;104648;1263;67232;-62
2024/02/21 02:45:36;;;;;;;32.10;8.80;;;;;;;6.48;82.68;101353.86;104728;1261;72937;-61
2024/02/21 02:48:03;;;;;;;31.50;8.20;;;;;;;6.51;82.81;101354.70;104585;1261;138444;-60
2024/02/21 02:50:30;;;;;;;27.30;7.50;;;;;;;6.53;82.81;101349.20;108871;1257;60854;-60
2024/02/21 02:52:57;;;;;;;26.70;6.00;;;;;;;6.54;82.83;101348.91;108812;1257;138845;-61
2024/02/21 02:55:23;;;;;;;27.60;8.30;;;;;;;6.54;82.84;101344.23;108881;1257;67621;-61
2024/02/21 02:57:50;;;;;;;42.40;11.50;;;;;;;6.56;82.96;101343.80;108861;1257;72160;-60
2024/02/21 03:00:17;;;;;;;41.10;10.80;;;;;;;6.58;82.96;101339.54;108746;1257;138452;-60
2024/02/21 03:02:46;;;;;;;46.40;11.20;;;;;;;6.58;82.83;101333.45;108854;1257;59568;-60
2024/02/21 03:05:20;;;;;;;61.40;16.70;;;;;;;6.61;82.87;101328.70;108821;1257;139241;-60
2024/02/21 03:07:47;;;;;;;67.30;19.80;;;;;;;6.61;82.79;101329.77;105958;1257;66291;-60
2024/02/21 03:10:16;;;;;;;77.30;21.30;;;;;;;6.62;82.93;101330.67;108811;1257;72770;-60
2024/02/21 03:12:42;;;;;;;113.20;30.30;;;;;;;6.63;82.92;101333.85;104890;1260;138770;-59
2024/02/21 03:15:10;;;;;;;69.00;19.60;;;;;;;6.62;82.99;101331.54;104734;1257;61288;-60
2024/02/21 03:17:36;;;;;;;54.40;15.70;;;;;;;6.64;83.06;101331.81;105300;1258;139076;-60
2024/02/21 03:20:10;;;;;;;38.80;10.60;;;;;;;6.66;83.10;101333.30;104682;1261;68254;-60
2024/02/21 03:22:37;;;;;;;33.30;8.40;;;;;;;6.67;83.24;101331.48;104864;1260;72890;-61
2024/02/21 03:25:04;;;;;;;39.20;9.90;;;;;;;6.71;83.38;101329.91;108622;1257;138754;-61
2024/02/21 03:27:32;;;;;;;27.50;7.10;;;;;;;6.75;83.38;101325.56;108866;1257;60724;-61
2024/02/21 03:29:58;;;;;;;32.30;7.20;;;;;;;6.77;83.34;101321.49;108779;1257;138812;-61
2024/02/21 03:32:25;;;;;;;31.30;7.70;;;;;;;6.79;83.32;101319.31;108954;1257;67479;-61
2024/02/21 03:34:52;;;;;;;30.90;8.50;;;;;;;6.80;83.41;101315.88;108793;1257;138861;-62
2024/02/21 03:37:19;;;;;;;31.50;7.60;;;;;;;6.84;83.43;101314.66;108922;1257;59315;-61
2024/02/21 03:39:46;;;;;;;36.40;8.50;;;;;;;6.85;83.34;101315.60;108906;1256;60315;-61
2024/02/21 03:42:13;;;;;;;32.00;7.70;;;;;;;6.86;83.32;101316.31;108830;1257;138880;-60
2024/02/21 03:44:40;;;;;;;41.40;10.50;;;;;;;6.87;83.36;101311.64;108923;1257;67224;-61
2024/02/21 03:47:06;;;;;;;34.80;9.40;;;;;;;6.86;83.31;101313.02;108807;1257;138940;-62
2024/02/21 03:49:33;;;;;;;32.10;9.20;;;;;;;6.86;83.39;101311.46;108931;1257;59655;-61
2024/02/21 03:52:00;;;;;;;31.70;8.60;;;;;;;6.87;83.49;101304.86;108634;1255;60582;-61
2024/02/21 03:54:27;;;;;;;38.60;11.30;;;;;;;6.88;83.48;101301.44;104782;1257;138724;-60
2024/02/21 03:56:53;;;;;;;40.10;10.20;;;;;;;6.89;83.48;101303.37;104829;1257;67213;-60
2024/02/21 03:59:22;;;;;;;49.70;12.00;;;;;;;6.87;83.38;101297.91;104659;1260;138945;-61
2024/02/21 04:01:53;;;;;;;36.10;9.20;;;;;;;6.84;83.49;101295.48;108918;1256;59373;-61
2024/02/21 04:04:20;;;;;;;30.70;7.70;;;;;;;6.83;83.55;101292.27;108933;1256;59938;-60
2024/02/21 04:06:50;;;;;;;31.40;8.30;;;;;;;6.83;83.62;101292.96;108799;1257;138746;-60
2024/02/21 04:09:17;;;;;;;36.00;7.40;;;;;;;6.81;83.63;101290.09;108948;1255;67538;-60
2024/02/21 04:11:44;;;;;;;36.30;9.00;;;;;;;6.81;83.74;101288.34;108765;1256;138556;-61
2024/02/21 04:14:11;;;;;;;35.80;7.80;;;;;;;6.80;83.76;101287.13;108934;1257;59234;-60
2024/02/21 04:16:39;;;;;;;29.30;6.80;;;;;;;6.80;83.82;101282.39;108969;1256;65020;-60
2024/02/21 04:19:05;;;;;;;30.30;6.70;;;;;;;6.82;83.81;101280.21;108823;1255;138519;-60
2024/02/21 04:21:32;;;;;;;29.30;8.60;;;;;;;6.83;83.76;101281.95;104882;1257;65526;-60
2024/02/21 04:23:59;;;;;;;34.10;8.00;;;;;;;6.81;83.89;101277.76;104623;1259;138619;-61
2024/02/21 04:26:26;;;;;;;28.50;7.50;;;;;;;6.81;83.95;101274.25;104895;1257;61205;-60
2024/02/21 04:28:52;;;;;;;28.30;7.60;;;;;;;6.79;83.93;101276.08;104645;1260;138509;-60
2024/02/21 04:31:19;;;;;;;24.40;7.50;;;;;;;6.77;83.93;101275.25;104956;1257;75309;-60
2024/02/21 04:33:46;;;;;;;24.30;7.20;;;;;;;6.76;84.13;101272.05;104754;1260;67342;-60
2024/02/21 04:36:13;;;;;;;24.90;7.10;;;;;;;6.73;84.16;101268.79;104565;1261;139527;-61
2024/02/21 04:38:40;;;;;;;21.50;6.30;;;;;;;6.72;84.21;101266.45;104915;1260;61376;-61
2024/02/21 04:41:07;;;;;;;20.30;6.30;;;;;;;6.72;84.36;101260.16;104671;1260;140240;-61
2024/02/21 04:43:34;;;;;;;21.60;6.00;;;;;;;6.70;84.39;101254.16;104801;1257;75622;-61
2024/02/21 04:46:01;;;;;;;29.00;6.80;;;;;;;6.71;84.52;101252.79;104883;1260;65566;-61
2024/02/21 04:48:28;;;;;;;21.50;8.20;;;;;;;6.69;84.51;101247.30;104761;1257;138829;-61
2024/02/21 04:50:55;;;;;;;30.40;11.30;;;;;;;6.69;84.60;101246.60;104795;1258;61356;-61
2024/02/21 04:53:21;;;;;;;25.20;9.80;;;;;;;6.69;84.76;101241.21;104682;1257;139498;-60
2024/02/21 04:55:48;;;;;;;23.40;8.20;;;;;;;6.70;84.82;101236.17;104932;1258;72484;-60
2024/02/21 04:58:15;;;;;;;21.70;7.10;;;;;;;6.70;84.77;101233.20;104762;1260;65132;-60
2024/02/21 05:00:41;;;;;;;20.70;6.90;;;;;;;6.70;84.77;101229.19;104715;1259;139111;-61
2024/02/21 05:03:08;;;;;;;18.50;6.90;;;;;;;6.68;84.86;101229.10;104719;1257;61367;-60
2024/02/21 05:05:35;;;;;;;25.10;8.00;;;;;;;6.66;84.85;101223.23;104733;1261;138673;-59
2024/02/21 05:08:02;;;;;;;18.10;7.50;;;;;;;6.64;84.96;101221.40;104918;1260;73895;-61
2024/02/21 05:10:29;;;;;;;24.10;8.20;;;;;;;6.66;85.13;101217.52;104726;1262;66593;-61
2024/02/21 05:12:56;;;;;;;19.40;8.40;;;;;;;6.68;85.19;101217.77;104578;1258;138619;-62
2024/02/21 05:15:22;;;;;;;22.90;7.50;;;;;;;6.68;85.19;101213.77;104640;1259;61596;-59
2024/02/21 05:17:49;;;;;;;20.40;9.20;;;;;;;6.68;85.24;101207.52;104565;1261;139712;-60
2024/02/21 05:20:16;;;;;;;24.70;8.20;;;;;;;6.69;85.30;101204.55;104680;1258;75112;-61
2024/02/21 05:22:43;;;;;;;18.40;8.10;;;;;;;6.70;85.29;101198.67;104661;1261;138676;-62
2024/02/21 05:25:10;;;;;;;19.00;8.10;;;;;;;6.69;85.32;101198.33;104930;1261;73804;-61
2024/02/21 05:27:38;;;;;;;24.20;9.20;;;;;;;6.67;85.14;101200.14;104723;1257;61271;-60
2024/02/21 05:30:06;;;;;;;23.60;9.00;;;;;;;6.66;85.25;101193.98;108818;1255;138342;-61
2024/02/21 05:32:33;;;;;;;14.60;8.10;;;;;;;6.67;85.39;101192.42;108912;1258;73673;-62
2024/02/21 05:35:00;;;;;;;17.80;8.80;;;;;;;6.68;85.39;101188.98;108846;1256;138565;-62
2024/02/21 05:37:27;;;;;;;15.70;7.80;;;;;;;6.67;85.36;101184.95;108925;1256;71041;-61
2024/02/21 05:39:53;;;;;;;24.60;11.70;;;;;;;6.67;85.24;101181.27;108912;1256;59028;-62
2024/02/21 05:42:20;;;;;;;29.50;15.80;;;;;;;6.67;85.32;101175.51;108840;1257;140037;-61
2024/02/21 05:44:47;;;;;;;20.20;12.80;;;;;;;6.68;85.41;101173.51;109023;1255;73590;-61
2024/02/21 05:47:15;;;;;;;25.60;14.20;;;;;;;6.71;85.41;101175.89;108903;1255;138981;-62
2024/02/21 05:49:41;;;;;;;25.60;12.00;;;;;;;6.73;85.44;101172.53;108975;1256;71365;-62
2024/02/21 05:52:08;;;;;;;35.10;17.50;;;;;;;6.75;85.48;101167.04;107672;1257;61232;-61
2024/02/21 05:54:38;;;;;;;26.20;14.90;;;;;;;6.76;85.36;101167.26;104819;1261;139086;-60
2024/02/21 05:57:05;;;;;;;28.70;14.80;;;;;;;6.77;85.44;101164.65;104760;1256;76007;-60
2024/02/21 05:59:32;;;;;;;26.50;13.60;;;;;;;6.79;85.47;101162.35;104810;1257;138778;-64
2024/02/21 06:01:59;;;;;;;23.70;12.50;;;;;;;6.79;85.42;101166.19;104719;1261;73575;-64
2024/02/21 06:04:26;;;;;;;24.70;12.50;;;;;;;6.81;85.54;101164.53;104814;1256;61365;-65
2024/02/21 06:06:53;;;;;;;24.10;12.40;;;;;;;6.83;85.52;101167.02;108813;1255;139758;-65
2024/02/21 06:09:19;;;;;;;22.70;11.40;;;;;;;6.85;85.55;101162.08;108965;1257;75955;-65
2024/02/21 06:11:48;;;;;;;25.10;11.80;;;;;;;6.90;85.65;101160.38;104934;1259;138646;-64
2024/02/21 06:14:15;;;;;;;27.60;12.20;;;;;;;6.94;85.65;101156.58;108910;1256;73601;-64
2024/02/21 06:16:43;;;;;;;22.20;11.60;;;;;;;6.97;85.55;101148.31;108925;1255;58960;-64
2024/02/21 06:19:10;;;;;;;22.40;12.30;;;;;;;7.02;85.58;101147.14;108960;1256;61407;-65
2024/02/21 06:21:37;;;;;;;19.90;10.60;;;;;;;7.08;85.64;101143.75;108949;1256;74811;-65
2024/02/21 06:24:04;;;;;;;21.30;10.40;;;;;;;7.14;85.65;101135.98;106156;1259;139033;-63
2024/02/21 06:26:31;;;;;;;19.80;9.70;;;;;;;7.19;85.46;101129.08;108852;1257;73783;-65
2024/02/21 06:28:59;;;;;;;20.70;10.00;;;;;;;7.22;85.35;101126.23;108759;1257;139127;-61
2024/02/21 06:31:27;;;;;;;26.20;10.70;;;;;;;7.26;85.37;101121.49;107797;1256;61278;-62
2024/02/21 06:33:53;;;;;;;21.80;10.50;;;;;;;7.29;85.31;101116.95;104712;1257;75231;-61
2024/02/21 06:36:20;;;;;;;26.40;10.80;;;;;;;7.31;85.24;101113.34;104679;1260;138917;-61
2024/02/21 06:38:47;;;;;;;20.80;9.80;;;;;;;7.31;85.16;101111.96;104790;1257;72632;-61
2024/02/21 06:41:18;;;;;;;18.80;9.00;;;;;;;7.34;85.17;101117.86;104737;1259;139405;-60
2024/02/21 06:43:46;;;;;;;23.70;11.60;;;;;;;7.34;85.20;101109.65;108925;1256;59021;-60
2024/02/21 06:46:33;;;;;;;24.30;10.40;;;;;;;7.36;85.06;101116.20;108902;1257;75211;-61
2024/02/21 06:49:00;;;;;;;30.00;16.30;;;;;;;7.40;85.09;101116.55;108810;1257;138870;-61
2024/02/21 06:51:27;;;;;;;23.90;15.60;;;;;;;7.41;85.02;101120.27;108881;1255;73158;-61
2024/02/21 06:53:54;;;;;;;27.30;14.90;;;;;;;7.41;84.98;101125.67;108900;1257;140460;-61
2024/02/21 06:56:26;;;;;;;21.60;12.50;;;;;;;7.42;84.97;101129.89;107539;1255;61172;-61
2024/02/21 06:58:53;;;;;;;56.10;32.00;;;;;;;7.42;84.77;101126.58;104748;1256;138847;-60
2024/02/21 07:01:20;;;;;;;42.20;23.00;;;;;;;7.42;84.86;101127.30;104872;1257;64153;-61
2024/02/21 07:03:47;;;;;;;27.20;17.00;;;;;;;7.44;84.85;101127.21;104675;1256;72894;-60
2024/02/21 07:06:14;;;;;;;22.50;12.00;;;;;;;7.45;84.75;101121.48;104850;1258;138803;-60
2024/02/21 07:08:41;;;;;;;23.50;13.50;;;;;;;7.47;84.88;101117.38;104977;1260;61261;-61
2024/02/21 07:11:07;;;;;;;33.00;18.50;;;;;;;7.50;84.82;101119.27;104735;1256;139187;-61
2024/02/21 07:13:34;;;;;;;29.90;17.10;;;;;;;7.53;84.87;101119.05;105040;1260;66570;-61
2024/02/21 07:16:01;;;;;;;41.60;24.50;;;;;;;7.53;84.75;101115.38;104801;1257;72102;-62
2024/02/21 07:18:28;;;;;;;32.20;17.90;;;;;;;7.53;84.68;101110.85;104586;1260;139116;-60
2024/02/21 07:20:55;;;;;;;25.30;13.80;;;;;;;7.55;84.69;101106.71;104943;1260;61162;-62
2024/02/21 07:23:22;;;;;;;28.50;14.40;;;;;;;7.55;84.67;101106.89;104532;1258;138680;-61
2024/02/21 07:25:48;;;;;;;33.50;14.80;;;;;;;7.55;84.69;101096.05;104821;1260;65257;-60
2024/02/21 07:28:16;;;;;;;28.10;12.90;;;;;;;7.57;84.75;101092.85;104785;1258;73098;-61
2024/02/21 07:30:43;;;;;;;28.30;13.20;;;;;;;7.58;84.64;101098.13;104472;1258;138689;-61
2024/02/21 07:33:10;;;;;;;29.30;11.00;;;;;;;7.57;84.59;101104.39;104836;1256;61294;-61
2024/02/21 07:35:41;;;;;;;27.00;11.10;;;;;;;7.57;84.59;101104.19;104645;1255;139037;-60
2024/02/21 07:38:12;;;;;;;27.90;11.00;;;;;;;7.56;84.46;101101.89;104827;1260;66567;-60
2024/02/21 07:40:39;;;;;;;25.40;11.50;;;;;;;7.55;84.53;101098.54;108885;1256;73629;-61
2024/02/21 07:43:05;;;;;;;21.90;11.10;;;;;;;7.55;84.49;101100.80;108766;1256;139047;-61
2024/02/21 07:45:32;;;;;;;26.10;10.20;;;;;;;7.55;84.49;101098.69;108943;1257;60307;-61
2024/02/21 07:47:59;;;;;;;22.60;10.40;;;;;;;7.55;84.42;101094.84;108890;1256;138742;-60
2024/02/21 07:50:26;;;;;;;24.70;11.10;;;;;;;7.53;84.30;101088.11;108975;1255;67490;-61
2024/02/21 07:52:53;;;;;;;22.20;10.50;;;;;;;7.53;84.40;101089.19;108840;1256;139249;-61
2024/02/21 07:55:19;;;;;;;27.10;10.30;;;;;;;7.58;84.49;101081.36;109019;1255;58944;-62
2024/02/21 07:57:46;;;;;;;24.00;11.00;;;;;;;7.62;84.45;101072.08;108925;1256;59022;-60
2024/02/21 08:00:19;;;;;;;27.00;11.90;;;;;;;7.66;84.53;101064.21;108853;1256;139393;-60
2024/02/21 08:02:46;;;;;;;25.20;11.10;;;;;;;7.69;84.51;101059.27;107586;1255;65861;-61
2024/02/21 08:05:13;;;;;;;30.70;12.30;;;;;;;7.71;84.44;101056.92;104682;1258;139441;-60
2024/02/21 08:07:40;;;;;;;26.10;13.10;;;;;;;7.71;84.41;101052.54;105022;1258;61329;-60
2024/02/21 08:10:10;;;;;;;35.80;14.30;;;;;;;7.71;84.39;101047.83;104938;1261;61231;-60
2024/02/21 08:12:37;;;;;;;29.50;14.20;;;;;;;7.71;84.37;101039.79;108820;1256;139201;-61
2024/02/21 08:15:05;;;;;;;30.70;12.60;;;;;;;7.71;84.47;101040.51;106473;1258;66457;-62
2024/02/21 08:17:31;;;;;;;23.30;12.10;;;;;;;7.76;84.75;101034.40;108838;1257;138545;-62
2024/02/21 08:19:58;;;;;;;35.00;14.50;;;;;;;7.81;84.91;101026.23;108994;1255;59029;-61
2024/02/21 08:22:25;;;;;;;27.40;13.70;;;;;;;7.89;84.98;101029.87;109013;1255;59547;-61
2024/02/21 08:24:52;;;;;;;31.60;13.60;;;;;;;7.93;84.82;101024.80;108826;1257;139041;-61
2024/02/21 08:27:19;;;;;;;31.70;14.00;;;;;;;7.96;84.73;101018.77;109028;1257;65524;-61
2024/02/21 08:29:46;;;;;;;33.70;17.20;;;;;;;8.00;84.74;101019.98;105167;1257;139714;-60
2024/02/21 08:32:13;;;;;;;37.00;17.20;;;;;;;8.03;84.74;101019.58;104758;1258;61361;-61
2024/02/21 08:34:39;;;;;;;26.80;14.10;;;;;;;8.08;84.84;101014.87;104783;1260;61279;-61
2024/02/21 08:37:06;;;;;;;25.80;13.70;;;;;;;8.08;84.58;101008.77;108876;1256;139172;-62
2024/02/21 08:39:33;;;;;;;33.10;15.80;;;;;;;8.06;84.56;101008.69;108944;1257;65995;-61
2024/02/21 08:42:00;;;;;;;25.60;14.10;;;;;;;8.04;84.46;101005.98;108937;1255;139117;-61
2024/02/21 08:44:27;;;;;;;26.20;13.80;;;;;;;8.04;84.59;101000.77;108965;1256;59700;-61
2024/02/21 08:46:54;;;;;;;26.70;13.70;;;;;;;8.05;84.55;100997.65;108793;1257;139096;-60
2024/02/21 08:49:21;;;;;;;24.70;12.50;;;;;;;8.06;84.45;100996.29;108952;1255;75636;-61
2024/02/21 08:51:48;;;;;;;23.30;11.10;;;;;;;8.06;84.55;100989.65;109010;1257;66973;-60
2024/02/21 08:54:15;;;;;;;22.60;11.10;;;;;;;8.06;84.46;100989.46;105555;1258;138714;-61
2024/02/21 08:56:42;;;;;;;24.90;12.50;;;;;;;8.07;84.54;100987.04;104733;1260;61313;-60
2024/02/21 08:59:08;;;;;;;20.80;10.50;;;;;;;8.08;84.50;100983.06;104857;1259;138783;-61
2024/02/21 09:01:35;;;;;;;21.40;12.60;;;;;;;8.08;84.54;100975.56;104862;1255;75404;-60
2024/02/21 09:04:02;;;;;;;23.30;11.60;;;;;;;8.06;84.55;100979.32;104856;1257;64622;-61
2024/02/21 09:06:30;;;;;;;21.60;12.00;;;;;;;8.05;84.52;100974.41;104777;1258;139292;-62
2024/02/21 09:08:58;;;;;;;22.30;12.00;;;;;;;8.05;84.56;100973.89;104790;1260;61243;-61
2024/02/21 09:11:24;;;;;;;26.90;12.90;;;;;;;8.06;84.47;100975.11;104758;1256;138993;-61
2024/02/21 09:13:51;;;;;;;25.80;14.30;;;;;;;8.07;84.66;100976.73;108973;1255;76838;-62
2024/02/21 09:16:18;;;;;;;29.30;14.90;;;;;;;8.09;84.55;100972.80;108956;1257;65768;-61
2024/02/21 09:18:46;;;;;;;32.80;17.00;;;;;;;8.11;84.62;100975.70;108842;1257;139198;-62
2024/02/21 09:21:13;;;;;;;24.70;14.00;;;;;;;8.16;84.52;100976.55;109032;1257;59385;-62
2024/02/21 09:23:39;;;;;;;30.30;14.00;;;;;;;8.17;84.38;100980.30;108834;1257;138498;-62
2024/02/21 09:26:07;;;;;;;28.20;15.80;;;;;;;8.17;84.24;100980.10;108311;1260;75986;-62
2024/02/21 09:28:34;;;;;;;21.50;13.60;;;;;;;8.19;84.36;100984.37;104802;1259;66822;-60
2024/02/21 09:31:01;;;;;;;22.60;13.10;;;;;;;8.21;84.34;100983.23;104878;1258;138825;-62
2024/02/21 09:33:28;;;;;;;23.00;13.10;;;;;;;8.26;84.47;100976.45;109067;1255;60371;-60
2024/02/21 09:35:55;;;;;;;27.00;15.50;;;;;;;8.33;84.42;100972.86;108911;1257;139112;-61
2024/02/21 09:38:22;;;;;;;23.70;15.10;;;;;;;8.37;84.42;100969.84;108994;1255;75316;-60
2024/02/21 09:41:00;;;;;;;24.50;14.80;;;;;;;8.42;84.37;100966.73;108860;1258;138838;-61
2024/02/21 09:43:27;;;;;;;25.30;13.40;;;;;;;8.46;84.32;100961.29;108879;1255;72377;-61
2024/02/21 09:45:56;;;;;;;25.60;14.30;;;;;;;8.51;84.38;100961.15;108799;1257;59094;-61
2024/02/21 09:48:36;;;;;;;31.80;16.00;;;;;;;8.57;84.29;100955.23;108972;1255;139218;-61
2024/02/21 09:51:03;;;;;;;24.00;14.70;;;;;;;8.65;84.43;100953.41;108955;1257;75087;-61
2024/02/21 09:53:30;;;;;;;27.00;14.60;;;;;;;8.69;84.18;100952.68;108870;1256;138994;-61
2024/02/21 09:55:57;;;;;;;20.70;13.70;;;;;;;8.70;84.04;100949.04;108918;1256;73428;-61
2024/02/21 09:58:26;;;;;;;24.00;13.30;;;;;;;8.71;83.99;100945.39;109026;1257;58865;-61
2024/02/21 10:00:53;;;;;;;21.90;13.00;;;;;;;8.74;83.97;100944.30;108861;1257;138678;-60
2024/02/21 10:03:19;;;;;;;17.00;12.00;;;;;;;8.79;84.00;100942.02;108972;1257;75413;-62
2024/02/21 10:05:48;;;;;;;19.90;12.60;;;;;;;8.90;84.21;100939.61;107517;1260;139035;-61
2024/02/21 10:08:15;;;;;;;20.30;11.00;;;;;;;9.02;84.21;100933.67;104894;1258;72372;-60
2024/02/21 10:10:45;;;;;;;19.50;11.00;;;;;;;9.04;83.84;100934.12;108945;1257;60007;-62
2024/02/21 10:13:29;;;;;;;17.20;10.90;;;;;;;9.01;83.76;100932.98;108873;1258;59297;-61
2024/02/21 10:16:02;;;;;;;17.80;10.80;;;;;;;9.14;84.08;100934.27;108865;1257;74788;-61
2024/02/21 10:18:29;;;;;;;16.80;10.20;;;;;;;9.24;83.84;100929.52;108803;1257;139263;-61
2024/02/21 10:21:06;;;;;;;19.40;10.10;;;;;;;9.33;83.90;100925.47;108892;1257;72776;-61
2024/02/21 10:23:43;;;;;;;18.20;11.20;;;;;;;9.52;83.94;100915.22;108793;1257;138785;-62
2024/02/21 10:26:10;;;;;;;19.10;12.30;;;;;;;9.68;83.74;100910.98;108599;1257;60816;-61
2024/02/21 10:28:41;;;;;;;17.20;10.60;;;;;;;9.94;84.03;100904.75;104735;1257;75063;-61
2024/02/21 10:31:10;;;;;;;16.10;9.60;;;;;;;10.20;83.89;100904.13;108828;1260;138514;-61
2024/02/21 10:33:37;;;;;;;13.60;9.80;;;;;;;10.31;83.27;100906.20;108876;1257;73107;-61
2024/02/21 10:36:09;;;;;;;16.10;9.30;;;;;;;10.38;82.99;100905.55;105844;1260;138033;-61
2024/02/21 10:38:38;;;;;;;15.00;9.00;;;;;;;10.50;82.78;100898.87;108869;1258;58997;-61
2024/02/21 10:41:05;;;;;;;11.60;8.00;;;;;;;10.50;82.15;100895.17;108543;1256;270058;-61
2024/02/21 10:43:40;;;;;;;13.20;9.10;;;;;;;10.42;82.04;100895.31;108940;1257;65179;-61
2024/02/21 10:46:10;;;;;;;12.90;8.10;;;;;;;10.43;81.97;100889.19;108927;1258;73287;-61
2024/02/21 10:48:47;;;;;;;9.50;7.20;;;;;;;10.48;81.98;100884.75;105984;1260;140432;-60
2024/02/21 10:51:18;;;;;;;13.20;8.00;;;;;;;10.42;81.48;100883.73;104856;1260;61374;-61
2024/02/21 10:53:50;;;;;;;12.90;8.10;;;;;;;10.33;81.39;100884.17;108811;1259;139318;-61
2024/02/21 10:56:28;;;;;;;13.50;8.10;;;;;;;10.27;81.37;100879.94;105597;1259;64943;-62
2024/02/21 10:58:57;;;;;;;11.10;7.20;;;;;;;10.20;81.22;100881.66;104565;1258;138838;-61
2024/02/21 11:01:26;;;;;;;12.20;7.40;;;;;;;10.10;81.18;100878.94;104860;1259;61375;-61
2024/02/21 11:03:54;;;;;;;10.30;7.50;;;;;;;10.01;81.08;100875.85;108876;1257;60862;-61
2024/02/21 11:06:21;;;;;;;9.00;6.40;;;;;;;9.92;81.21;100873.33;108855;1256;138216;-62
2024/02/21 11:09:07;;;;;;;10.80;5.90;;;;;;;9.90;81.31;100873.46;108894;1258;67038;-62
2024/02/21 11:11:34;;;;;;;10.60;7.20;;;;;;;9.85;81.25;100873.64;108789;1255;138043;-60